Time;durP1;ratioP1;P1;durP2;ratioP2;P2;SDS_P1;SDS_P2;PMS_P1;PMS_P2;Temp;Humidity;BMP_temperature;BMP_pressure;BME280_temperature;BME280_humidity;BME280_pressure;Samples;Min_cycle;Max_cycle;Signal;HPM_P1;HPM_P2
2022/03/24 00:00:09;;;;;;;3.83;3.42;;;17.20;40.30;;;;;;5114111;28;20097;-76
2022/03/24 00:02:37;;;;;;;7.32;3.53;;;17.20;40.30;;;;;;5115707;28;20047;-76
2022/03/24 00:05:03;;;;;;;4.75;4.25;;;17.20;40.30;;;;;;5115459;28;20470;-75
2022/03/24 00:07:28;;;;;;;7.18;4.00;;;17.20;40.30;;;;;;5114388;28;20138;-76
2022/03/24 00:09:54;;;;;;;5.80;4.82;;;17.20;40.30;;;;;;5114383;28;20093;-74
2022/03/24 00:12:22;;;;;;;5.22;3.75;;;17.10;40.30;;;;;;5115319;28;20482;-75
2022/03/24 00:14:47;;;;;;;5.22;4.63;;;17.10;40.40;;;;;;5115482;28;20535;-70
2022/03/24 00:17:13;;;;;;;6.45;4.20;;;17.20;40.40;;;;;;5114302;28;20108;-74
2022/03/24 00:19:39;;;;;;;5.35;4.20;;;17.10;40.40;;;;;;5113910;28;20047;-72
2022/03/24 00:22:05;;;;;;;6.93;4.45;;;17.10;40.40;;;;;;5114708;28;20122;-76
2022/03/24 00:24:30;;;;;;;5.57;4.07;;;17.10;40.40;;;;;;5114194;28;20048;-75
2022/03/24 00:26:56;;;;;;;6.07;4.25;;;17.10;40.40;;;;;;5114994;28;20046;-75
2022/03/24 00:29:21;;;;;;;8.65;4.93;;;17.00;40.40;;;;;;5113730;28;20059;-78
2022/03/24 00:31:47;;;;;;;7.57;4.70;;;17.00;40.40;;;;;;5113251;28;20054;-71
2022/03/24 00:34:13;;;;;;;6.40;5.20;;;17.00;40.40;;;;;;5114170;28;20119;-71
2022/03/24 00:36:39;;;;;;;8.10;5.25;;;17.00;40.40;;;;;;5113905;28;20122;-75
2022/03/24 00:39:05;;;;;;;7.47;5.15;;;17.00;40.40;;;;;;5113623;28;20031;-71
2022/03/24 00:41:35;;;;;;;6.07;4.93;;;17.00;40.40;;;;;;5113504;28;20445;-75
2022/03/24 00:44:01;;;;;;;5.88;5.18;;;17.00;40.50;;;;;;5113701;28;20035;-76
2022/03/24 00:46:27;;;;;;;9.00;4.90;;;17.00;40.40;;;;;;5096931;28;20360;-73
2022/03/24 00:48:53;;;;;;;8.60;5.82;;;16.90;40.30;;;;;;5113498;28;20118;-76
2022/03/24 00:51:20;;;;;;;7.15;5.20;;;16.90;40.40;;;;;;5113004;28;20043;-70
2022/03/24 00:53:51;;;;;;;8.90;5.25;;;16.90;40.40;;;;;;5114580;28;20418;-71
2022/03/24 00:56:18;;;;;;;7.47;5.60;;;16.90;40.40;;;;;;5113187;28;20048;-76
2022/03/24 00:58:44;;;;;;;7.75;5.30;;;16.80;40.40;;;;;;5113118;28;20047;-70
2022/03/24 01:01:16;;;;;;;7.43;5.32;;;16.80;40.30;;;;;;5112846;28;20040;-75
2022/03/24 01:03:42;;;;;;;6.18;4.75;;;16.80;40.40;;;;;;5113271;28;20146;-70
2022/03/24 01:06:10;;;;;;;7.05;4.90;;;16.80;40.40;;;;;;5112981;28;20046;-70
2022/03/24 01:08:35;;;;;;;7.20;5.95;;;16.80;40.40;;;;;;5114282;28;20044;-76
2022/03/24 01:11:05;;;;;;;6.47;4.95;;;16.80;40.40;;;;;;5114163;28;20046;-70
2022/03/24 01:13:34;;;;;;;10.02;4.80;;;16.80;40.40;;;;;;5113199;28;20105;-70
2022/03/24 01:16:01;;;;;;;5.88;5.00;;;16.80;40.40;;;;;;5114124;28;20027;-70
2022/03/24 01:18:27;;;;;;;7.03;5.22;;;16.70;40.40;;;;;;5112801;28;20067;-70
2022/03/24 01:20:53;;;;;;;6.20;4.97;;;16.70;40.50;;;;;;5112607;28;20048;-70
2022/03/24 01:23:19;;;;;;;5.78;5.03;;;16.70;40.50;;;;;;5113039;28;20036;-76
2022/03/24 01:25:44;;;;;;;7.88;5.45;;;16.70;40.50;;;;;;5112837;28;20118;-75
2022/03/24 01:28:10;;;;;;;8.27;5.28;;;16.70;40.50;;;;;;5112961;28;20070;-70
2022/03/24 01:30:39;;;;;;;6.18;5.53;;;16.70;40.50;;;;;;5112575;28;20092;-70
2022/03/24 01:33:05;;;;;;;6.13;5.53;;;16.70;40.50;;;;;;5112502;28;20052;-70
2022/03/24 01:35:34;;;;;;;7.75;6.10;;;16.70;40.60;;;;;;5112452;28;20122;-76
2022/03/24 01:38:00;;;;;;;6.60;5.93;;;16.60;40.50;;;;;;5112716;28;20089;-70
2022/03/24 01:40:26;;;;;;;6.78;4.88;;;16.60;40.60;;;;;;5112353;28;20047;-76
2022/03/24 01:42:52;;;;;;;8.40;5.90;;;16.60;40.60;;;;;;5112464;28;20063;-70
2022/03/24 01:45:19;;;;;;;6.45;4.80;;;16.60;40.60;;;;;;5112048;28;20579;-71
2022/03/24 01:47:47;;;;;;;5.33;4.83;;;16.60;40.60;;;;;;5112423;28;20121;-74
2022/03/24 01:50:13;;;;;;;7.97;5.05;;;16.60;40.60;;;;;;5112487;28;20070;-70
2022/03/24 01:52:43;;;;;;;6.65;4.90;;;16.50;40.50;;;;;;5113375;28;20497;-70
2022/03/24 01:55:11;;;;;;;5.72;4.55;;;16.50;40.60;;;;;;5113445;28;20482;-73
2022/03/24 01:57:39;;;;;;;4.57;4.10;;;16.50;40.60;;;;;;5113153;28;20069;-71
2022/03/24 02:00:06;;;;;;;5.20;4.53;;;16.50;40.60;;;;;;5111902;28;20059;-74
2022/03/24 02:02:32;;;;;;;6.38;5.72;;;16.50;40.60;;;;;;5111425;28;20089;-70
2022/03/24 02:04:58;;;;;;;5.28;4.78;;;16.50;40.60;;;;;;5111900;28;20064;-71
2022/03/24 02:07:24;;;;;;;5.93;4.53;;;16.50;40.60;;;;;;5113164;28;20114;-70
2022/03/24 02:09:50;;;;;;;5.93;4.90;;;16.50;40.50;;;;;;5113030;28;20122;-70
2022/03/24 02:12:15;;;;;;;6.00;5.15;;;16.40;40.50;;;;;;5112990;28;20399;-72
2022/03/24 02:14:42;;;;;;;6.65;5.30;;;16.40;40.50;;;;;;5112022;28;20043;-71
2022/03/24 02:17:08;;;;;;;5.43;4.93;;;16.40;40.50;;;;;;5111700;28;20114;-70
2022/03/24 02:19:36;;;;;;;6.97;5.53;;;16.50;40.60;;;;;;5111754;28;20044;-71
2022/03/24 02:24:51;;;;;;;6.55;4.88;;;16.40;40.50;;;;;;5130347;27;20416;-68
2022/03/24 02:27:17;;;;;;;6.70;5.25;;;16.40;40.50;;;;;;5146496;27;20039;-70
2022/03/24 02:29:43;;;;;;;7.28;5.57;;;16.30;40.50;;;;;;5128919;28;20372;-75
2022/03/24 02:32:11;;;;;;;5.32;4.93;;;16.40;40.50;;;;;;5129192;28;20040;-72
2022/03/24 02:34:38;;;;;;;6.40;4.57;;;16.40;40.40;;;;;;5129086;28;20039;-72
2022/03/24 02:37:08;;;;;;;6.50;4.38;;;16.50;40.50;;;;;;5130129;27;20049;-70
2022/03/24 02:39:35;;;;;;;5.18;4.22;;;16.60;40.30;;;;;;5130257;27;20048;-71
2022/03/24 02:42:02;;;;;;;4.65;3.65;;;16.80;40.10;;;;;;5128343;28;20106;-71
2022/03/24 02:44:30;;;;;;;5.55;4.28;;;17.10;39.80;;;;;;5129845;27;20039;-71
2022/03/24 02:46:57;;;;;;;4.45;3.95;;;17.40;39.40;;;;;;5128847;28;20122;-71
2022/03/24 02:49:25;;;;;;;5.28;3.67;;;17.70;39.00;;;;;;5129853;28;20111;-75
2022/03/24 02:51:52;;;;;;;4.28;3.65;;;18.00;38.50;;;;;;5128805;28;20057;-71
2022/03/24 02:54:19;;;;;;;3.90;3.50;;;18.30;38.10;;;;;;5129769;28;20043;-75
2022/03/24 02:56:45;;;;;;;3.25;2.95;;;18.60;37.70;;;;;;5128753;28;20047;-71
2022/03/24 02:59:12;;;;;;;4.32;3.60;;;18.80;37.30;;;;;;5128296;28;20509;-73
2022/03/24 03:01:42;;;;;;;4.10;3.40;;;19.10;37.00;;;;;;5129790;27;20444;-71
2022/03/24 03:04:09;;;;;;;3.85;3.35;;;19.20;36.60;;;;;;5129506;28;20074;-71
2022/03/24 03:06:34;;;;;;;4.57;3.78;;;19.40;36.30;;;;;;5129533;28;20600;-74
2022/03/24 03:09:01;;;;;;;5.28;3.90;;;19.60;36.00;;;;;;5128355;28;20048;-73
2022/03/24 03:11:30;;;;;;;5.32;3.10;;;19.70;35.80;;;;;;5129655;28;20062;-73
2022/03/24 03:13:56;;;;;;;4.00;3.15;;;19.90;35.60;;;;;;5128358;28;20054;-71
2022/03/24 03:16:22;;;;;;;4.25;3.35;;;20.10;35.40;;;;;;5129329;28;20039;-73
2022/03/24 03:18:48;;;;;;;3.85;3.45;;;20.10;35.10;;;;;;5129291;28;20466;-74
2022/03/24 03:21:16;;;;;;;3.75;3.42;;;20.30;35.00;;;;;;5127978;28;20071;-73
2022/03/24 03:23:45;;;;;;;4.85;3.38;;;20.40;34.80;;;;;;5127779;28;20204;-73
2022/03/24 03:26:12;;;;;;;5.65;3.55;;;20.40;34.60;;;;;;5127781;28;20039;-71
2022/03/24 03:28:39;;;;;;;4.70;3.28;;;20.50;34.50;;;;;;5128161;28;20118;-75
2022/03/24 03:31:05;;;;;;;4.97;3.75;;;20.70;34.30;;;;;;5129072;28;20092;-74
2022/03/24 03:33:32;;;;;;;3.20;2.95;;;20.80;34.20;;;;;;5128041;28;20092;-71
2022/03/24 03:35:59;;;;;;;3.22;2.92;;;20.80;34.00;;;;;;5116427;28;20422;-71
2022/03/24 03:38:26;;;;;;;4.68;3.47;;;20.90;33.90;;;;;;5114188;28;20123;-71
2022/03/24 03:40:53;;;;;;;3.58;3.15;;;21.00;33.80;;;;;;5113892;28;20092;-72
2022/03/24 03:43:23;;;;;;;4.03;3.58;;;21.10;33.70;;;;;;5114080;28;20044;-75
2022/03/24 03:45:49;;;;;;;4.13;3.45;;;21.10;33.50;;;;;;5114149;28;20402;-73
2022/03/24 03:48:15;;;;;;;4.30;3.40;;;21.20;33.50;;;;;;5113782;28;20043;-73
2022/03/24 03:50:41;;;;;;;3.97;3.33;;;21.30;33.40;;;;;;5114895;28;20043;-72
2022/03/24 03:53:08;;;;;;;4.10;3.28;;;21.30;33.30;;;;;;5113994;28;20040;-71
2022/03/24 03:55:35;;;;;;;4.07;2.92;;;21.40;33.30;;;;;;5113601;28;20059;-71
2022/03/24 03:58:05;;;;;;;3.03;2.72;;;21.40;33.20;;;;;;5114832;28;20048;-73
2022/03/24 04:01:02;;;;;;;3.88;3.25;;;21.40;33.00;;;;;;5113811;28;20379;-71
2022/03/24 04:03:16;;;;;;;3.55;3.25;;;21.50;33.00;;;;;;5113178;28;20050;-72
2022/03/24 04:05:43;;;;;;;3.38;3.08;;;21.50;32.90;;;;;;5114685;28;20127;-73
2022/03/24 04:08:10;;;;;;;7.50;4.10;;;21.60;32.80;;;;;;5113589;28;20039;-71
2022/03/24 04:10:38;;;;;;;3.78;3.28;;;21.70;32.80;;;;;;5113618;28;20124;-71
2022/03/24 04:13:05;;;;;;;3.90;3.15;;;21.80;32.60;;;;;;5114623;28;20050;-70
2022/03/24 04:15:34;;;;;;;3.55;2.90;;;21.90;32.50;;;;;;5114611;28;20035;-71
2022/03/24 04:18:01;;;;;;;3.30;2.53;;;22.10;32.30;;;;;;5113346;28;20039;-71
2022/03/24 04:20:26;;;;;;;3.40;2.15;;;22.10;32.10;;;;;;5114491;28;20070;-72
2022/03/24 04:22:54;;;;;;;3.03;2.50;;;22.30;32.00;;;;;;5112687;28;20426;-71
2022/03/24 04:25:21;;;;;;;4.85;3.63;;;22.40;31.80;;;;;;5113033;28;20054;-71
2022/03/24 04:27:48;;;;;;;3.42;3.13;;;22.50;31.60;;;;;;5113176;28;20043;-71
2022/03/24 04:30:14;;;;;;;3.92;3.53;;;22.70;31.50;;;;;;5114389;28;20448;-72
2022/03/24 04:32:41;;;;;;;3.70;2.72;;;22.80;31.30;;;;;;5112809;28;20051;-73
2022/03/24 04:35:08;;;;;;;3.13;2.85;;;22.90;31.10;;;;;;5114149;28;20042;-71
2022/03/24 04:37:35;;;;;;;4.50;2.80;;;23.00;30.90;;;;;;5114262;28;20047;-71
2022/03/24 04:40:03;;;;;;;3.40;2.70;;;23.10;30.80;;;;;;5113993;28;20036;-72
2022/03/24 04:42:29;;;;;;;2.90;2.67;;;23.10;30.80;;;;;;5113913;28;20608;-75
2022/03/24 04:44:55;;;;;;;3.58;2.55;;;23.10;30.70;;;;;;5112686;28;20075;-76
2022/03/24 04:47:21;;;;;;;3.40;2.58;;;23.10;30.70;;;;;;5110881;28;20035;-71
2022/03/24 04:49:47;;;;;;;2.58;2.28;;;23.10;30.70;;;;;;5112768;28;20092;-71
2022/03/24 04:52:13;;;;;;;2.95;2.70;;;23.00;30.70;;;;;;5112770;28;20047;-71
2022/03/24 04:54:39;;;;;;;2.70;2.50;;;23.00;30.80;;;;;;5112488;28;20074;-71
2022/03/24 04:57:05;;;;;;;2.47;2.20;;;23.00;31.60;;;;;;5112725;28;20137;-71
2022/03/24 04:59:31;;;;;;;2.50;2.30;;;22.90;30.80;;;;;;5112289;28;20050;-75
2022/03/24 05:01:56;;;;;;;2.70;2.50;;;22.90;30.70;;;;;;5112302;28;20035;-72
2022/03/24 05:04:23;;;;;;;3.10;2.80;;;22.90;30.70;;;;;;5112219;28;20123;-71
2022/03/24 05:06:50;;;;;;;3.28;2.72;;;22.90;30.70;;;;;;5112514;28;20499;-71
2022/03/24 05:09:15;;;;;;;3.25;3.05;;;22.90;30.70;;;;;;5113560;28;20137;-75
2022/03/24 05:11:41;;;;;;;3.47;3.15;;;22.90;30.70;;;;;;5113582;28;20110;-70
2022/03/24 05:14:08;;;;;;;3.45;3.15;;;22.90;30.70;;;;;;5112280;28;20047;-70
2022/03/24 05:16:34;;;;;;;4.50;3.17;;;22.90;30.60;;;;;;5112286;28;20487;-71
2022/03/24 05:19:00;;;;;;;4.22;2.95;;;23.00;30.60;;;;;;5111920;28;20514;-71
2022/03/24 05:21:26;;;;;;;3.28;2.97;;;23.00;30.60;;;;;;5112225;28;20035;-71
2022/03/24 05:23:52;;;;;;;3.15;2.85;;;23.00;30.50;;;;;;5112965;28;20131;-72
2022/03/24 05:26:20;;;;;;;2.88;2.58;;;23.00;30.50;;;;;;5112122;28;20126;-75
2022/03/24 05:28:47;;;;;;;2.67;2.47;;;23.10;30.40;;;;;;5113051;28;20039;-71
2022/03/24 05:31:16;;;;;;;3.53;3.20;;;23.10;30.40;;;;;;5113078;28;20134;-72
2022/03/24 05:33:43;;;;;;;4.70;2.63;;;23.10;30.30;;;;;;5112923;28;20077;-71
2022/03/24 05:36:09;;;;;;;3.63;2.88;;;23.10;30.30;;;;;;5112987;28;20089;-71
2022/03/24 05:38:35;;;;;;;3.60;2.63;;;23.10;30.30;;;;;;5111909;28;20110;-75
2022/03/24 05:41:01;;;;;;;3.35;3.05;;;23.10;30.30;;;;;;5111616;28;20490;-71
2022/03/24 05:43:27;;;;;;;3.30;3.00;;;23.00;30.20;;;;;;5111470;28;20067;-72
2022/03/24 05:45:53;;;;;;;4.57;2.95;;;23.00;30.20;;;;;;5111001;28;20043;-73
2022/03/24 05:48:18;;;;;;;4.10;3.35;;;23.00;30.30;;;;;;5112904;28;20035;-73
2022/03/24 05:50:44;;;;;;;3.22;2.90;;;23.00;30.20;;;;;;5111337;28;20123;-72
2022/03/24 05:53:10;;;;;;;3.15;2.70;;;23.00;30.30;;;;;;5112747;28;20101;-71
2022/03/24 05:55:38;;;;;;;2.95;2.60;;;23.00;30.30;;;;;;5111331;28;20044;-76
2022/03/24 05:58:04;;;;;;;3.20;2.58;;;23.00;30.30;;;;;;5111371;28;20048;-70
2022/03/24 06:00:31;;;;;;;4.00;3.17;;;23.00;30.30;;;;;;5112582;28;20506;-75
2022/03/24 06:03:00;;;;;;;3.67;3.17;;;22.90;30.30;;;;;;5111415;28;20046;-75
2022/03/24 06:05:26;;;;;;;4.47;2.80;;;22.90;31.10;;;;;;5112487;28;20039;-75
2022/03/24 06:07:52;;;;;;;3.95;3.05;;;22.90;30.40;;;;;;5111521;28;20085;-73
2022/03/24 06:10:18;;;;;;;4.18;3.25;;;22.90;30.40;;;;;;5111402;28;20088;-75
2022/03/24 06:12:46;;;;;;;3.60;3.30;;;22.90;30.40;;;;;;5111169;28;20127;-71
2022/03/24 06:15:12;;;;;;;4.40;3.35;;;22.80;30.30;;;;;;5111055;28;20698;-75
2022/03/24 06:17:38;;;;;;;3.55;2.97;;;22.90;30.40;;;;;;5110827;28;20142;-75
2022/03/24 06:20:06;;;;;;;3.53;3.13;;;22.90;30.40;;;;;;5111331;28;20087;-71
2022/03/24 06:22:42;;;;;;;4.05;3.70;;;22.90;30.30;;;;;;5110660;28;20036;-75
2022/03/24 06:25:08;;;;;;;5.10;3.08;;;22.90;30.30;;;;;;5111022;28;20048;-75
2022/03/24 06:27:34;;;;;;;4.00;3.05;;;22.90;30.30;;;;;;5110915;28;20096;-75
2022/03/24 06:29:59;;;;;;;4.75;3.25;;;22.90;30.30;;;;;;5110840;28;20047;-76
2022/03/24 06:32:27;;;;;;;5.35;4.63;;;23.00;30.30;;;;;;5110573;28;20043;-74
2022/03/24 06:34:53;;;;;;;5.63;5.10;;;23.00;30.60;;;;;;5109846;28;20517;-74
2022/03/24 06:37:19;;;;;;;7.20;5.20;;;22.90;30.70;;;;;;5110356;28;20036;-71
2022/03/24 06:39:45;;;;;;;6.20;5.70;;;22.90;30.70;;;;;;5108845;28;20035;-74
2022/03/24 06:42:11;;;;;;;7.10;6.50;;;22.80;30.60;;;;;;5107775;28;20035;-73
2022/03/24 06:44:36;;;;;;;8.52;6.40;;;22.80;30.60;;;;;;5106098;28;20038;-73
2022/03/24 06:47:02;;;;;;;8.13;7.32;;;22.80;30.70;;;;;;5109270;28;20048;-75
2022/03/24 06:49:27;;;;;;;9.10;8.23;;;22.80;30.60;;;;;;5107171;28;20032;-76
2022/03/24 06:51:53;;;;;;;9.38;8.48;;;22.80;30.50;;;;;;5107106;28;20690;-77
2022/03/24 06:54:19;;;;;;;8.90;8.10;;;22.80;30.40;;;;;;5108880;28;20127;-73
2022/03/24 06:56:44;;;;;;;10.52;9.25;;;22.90;30.50;;;;;;5107048;28;20043;-74
2022/03/24 06:59:10;;;;;;;11.90;10.23;;;22.90;30.40;;;;;;5108700;28;20063;-74
2022/03/24 07:01:36;;;;;;;11.07;10.07;;;23.00;30.30;;;;;;5103908;28;20028;-73
2022/03/24 07:04:02;;;;;;;10.27;9.20;;;23.00;30.20;;;;;;5099865;28;20112;-72
2022/03/24 07:06:28;;;;;;;10.10;9.10;;;23.00;30.20;;;;;;5105899;28;20076;-72
2022/03/24 07:08:53;;;;;;;11.80;10.35;;;23.10;30.00;;;;;;5101966;28;20047;-72
2022/03/24 07:11:19;;;;;;;11.35;10.15;;;23.20;30.00;;;;;;5103252;28;20063;-72
2022/03/24 07:13:45;;;;;;;11.15;10.15;;;23.30;29.90;;;;;;5105445;28;20054;-77
2022/03/24 07:16:10;;;;;;;12.88;11.60;;;23.20;29.80;;;;;;5105603;28;20039;-71
2022/03/24 07:18:36;;;;;;;10.73;9.80;;;23.30;29.90;;;;;;5080270;28;20039;-72
2022/03/24 07:21:06;;;;;;;9.82;8.82;;;23.30;29.90;;;;;;5098590;28;20988;-75
2022/03/24 07:23:32;;;;;;;8.93;7.47;;;23.40;30.00;;;;;;5099108;28;20032;-73
2022/03/24 07:25:58;;;;;;;7.82;7.05;;;23.40;30.00;;;;;;5101094;28;20132;-74
2022/03/24 07:28:23;;;;;;;7.47;6.78;;;23.60;30.20;;;;;;5105409;28;20458;-72
2022/03/24 07:30:50;;;;;;;10.52;6.18;;;23.60;30.30;;;;;;5123874;27;20071;-72
2022/03/24 07:33:17;;;;;;;7.60;6.88;;;23.70;30.40;;;;;;5104368;28;20039;-70
2022/03/24 07:35:42;;;;;;;11.20;9.23;;;23.70;30.40;;;;;;5106634;28;20041;-70
2022/03/24 07:38:09;;;;;;;13.23;11.38;;;23.60;30.60;;;;;;5086480;27;20040;-71
2022/03/24 07:40:37;;;;;;;15.88;14.27;;;23.50;30.70;;;;;;5093599;28;20097;-70
2022/03/24 07:43:05;;;;;;;22.13;14.25;;;23.40;30.60;;;;;;5092431;28;20047;-69
2022/03/24 07:45:37;;;;;;;19.40;14.82;;;23.30;31.90;;;;;;5090971;27;20060;-71
2022/03/24 07:48:12;;;;;;;17.33;14.57;;;23.10;31.60;;;;;;5092031;27;20657;-71
2022/03/24 07:50:41;;;;;;;21.20;16.90;;;23.10;31.70;;;;;;5092526;27;20063;-72
2022/03/24 07:55:58;;;;;;;16.20;13.93;;;23.00;32.00;;;;;;5086608;27;20466;-69
2022/03/24 07:58:24;;;;;;;16.17;12.23;;;22.80;32.30;;;;;;5086938;28;20039;-71
2022/03/24 08:00:50;;;;;;;13.13;10.52;;;22.70;32.50;;;;;;5112675;27;20075;-69
2022/03/24 08:03:20;;;;;;;13.50;12.13;;;22.70;32.70;;;;;;5099772;28;20164;-66
2022/03/24 08:05:46;;;;;;;13.90;12.50;;;22.60;32.90;;;;;;5107545;27;20043;-70
2022/03/24 08:08:14;;;;;;;13.25;10.25;;;22.50;32.90;;;;;;5104357;27;20051;-69
2022/03/24 08:10:43;;;;;;;11.65;10.15;;;22.50;33.20;;;;;;5096704;28;20105;-74
2022/03/24 08:13:11;;;;;;;16.30;12.90;;;22.40;33.60;;;;;;5094156;28;20066;-66
2022/03/24 08:15:37;;;;;;;15.48;13.80;;;22.30;33.60;;;;;;5104482;27;20060;-70
2022/03/24 08:18:04;;;;;;;17.80;12.73;;;22.20;33.80;;;;;;5093335;28;20047;-75
2022/03/24 08:20:31;;;;;;;13.13;11.20;;;22.20;34.00;;;;;;5096174;28;20067;-78
2022/03/24 08:22:56;;;;;;;11.82;9.85;;;22.10;34.30;;;;;;5087200;28;20711;-74
2022/03/24 08:25:23;;;;;;;14.32;9.32;;;22.00;34.70;;;;;;5081596;28;20059;-72
2022/03/24 08:27:51;;;;;;;10.70;9.55;;;22.00;35.00;;;;;;5090183;28;20064;-69
2022/03/24 08:30:17;;;;;;;15.18;9.70;;;22.00;35.40;;;;;;5090077;28;20046;-73
2022/03/24 08:32:43;;;;;;;13.20;9.10;;;21.90;35.40;;;;;;5098296;28;20024;-73
2022/03/24 08:35:10;;;;;;;16.80;9.15;;;21.80;36.40;;;;;;5105263;27;20161;-72
2022/03/24 08:37:35;;;;;;;9.77;8.30;;;21.70;35.90;;;;;;5109365;27;20479;-72
2022/03/24 08:40:01;;;;;;;10.13;7.93;;;21.70;36.20;;;;;;5091831;28;20035;-73
2022/03/24 08:42:27;;;;;;;9.77;8.13;;;21.60;36.50;;;;;;5091396;28;20039;-76
2022/03/24 08:44:53;;;;;;;8.20;7.35;;;21.50;36.70;;;;;;5110153;27;20072;-73
2022/03/24 08:47:19;;;;;;;9.75;8.88;;;21.50;36.90;;;;;;5101137;27;20513;-83
2022/03/24 08:49:45;;;;;;;7.97;7.18;;;21.40;36.80;;;;;;5081835;28;20048;-74
2022/03/24 08:52:12;;;;;;;11.30;7.95;;;21.30;36.90;;;;;;5084832;28;20078;-72
2022/03/24 08:54:38;;;;;;;10.57;7.40;;;21.30;37.10;;;;;;5092146;28;20063;-69
2022/03/24 08:57:04;;;;;;;9.20;7.85;;;21.20;37.10;;;;;;5095161;27;20043;-73
2022/03/24 08:59:30;;;;;;;10.43;7.85;;;21.20;37.10;;;;;;5094628;27;20032;-75
2022/03/24 09:01:57;;;;;;;9.95;7.68;;;21.20;37.30;;;;;;5090252;28;20082;-73
2022/03/24 09:04:26;;;;;;;9.45;8.45;;;21.10;37.40;;;;;;5094795;28;20044;-77
2022/03/24 09:06:53;;;;;;;8.50;7.53;;;21.10;37.40;;;;;;5081794;28;20031;-74
2022/03/24 09:09:22;;;;;;;10.15;8.98;;;21.00;37.50;;;;;;5096117;27;20283;-73
2022/03/24 09:11:49;;;;;;;11.60;7.85;;;21.00;37.60;;;;;;5076928;28;20052;-72
2022/03/24 09:14:16;;;;;;;13.65;7.80;;;20.90;37.80;;;;;;5075828;28;20051;-72
2022/03/24 09:16:42;;;;;;;9.15;7.97;;;20.90;37.90;;;;;;5072681;28;20064;-76
2022/03/24 09:19:08;;;;;;;10.07;7.82;;;20.80;38.00;;;;;;5079822;28;20081;-78
2022/03/24 09:21:33;;;;;;;10.55;7.10;;;20.80;38.20;;;;;;5083534;28;20032;-76
2022/03/24 09:23:59;;;;;;;10.07;8.35;;;20.80;38.40;;;;;;5092042;27;20147;-76
2022/03/24 09:26:25;;;;;;;7.40;6.63;;;20.80;38.50;;;;;;5086154;28;20036;-74
2022/03/24 09:28:52;;;;;;;9.07;6.30;;;20.80;38.80;;;;;;5084702;28;20044;-74
2022/03/24 09:31:19;;;;;;;7.90;6.18;;;20.70;38.90;;;;;;5095787;27;20036;-74
2022/03/24 09:33:45;;;;;;;10.43;5.90;;;20.70;39.00;;;;;;5079539;28;20036;-73
2022/03/24 09:36:11;;;;;;;9.77;6.53;;;20.70;39.20;;;;;;5079199;28;20391;-75
2022/03/24 09:38:38;;;;;;;7.03;5.55;;;20.70;39.20;;;;;;5084754;28;20036;-74
2022/03/24 09:41:05;;;;;;;7.28;5.43;;;20.60;39.20;;;;;;5074391;28;20045;-74
2022/03/24 09:43:34;;;;;;;10.05;5.25;;;20.70;39.10;;;;;;5076537;28;20039;-74
2022/03/24 09:46:01;;;;;;;5.43;4.75;;;20.70;39.10;;;;;;5072800;28;20173;-74
2022/03/24 09:48:28;;;;;;;6.30;4.97;;;20.60;39.00;;;;;;5077964;28;20041;-71
2022/03/24 09:50:54;;;;;;;10.00;5.07;;;20.60;39.00;;;;;;5089380;27;20036;-69
2022/03/24 09:53:20;;;;;;;9.27;5.57;;;20.60;38.90;;;;;;5073848;28;20459;-72
2022/03/24 09:55:49;;;;;;;6.18;5.05;;;20.60;38.80;;;;;;5091014;27;20051;-68
2022/03/24 09:58:16;;;;;;;5.55;4.65;;;20.70;38.80;;;;;;5073240;28;20390;-73
2022/03/24 10:00:42;;;;;;;15.27;10.25;;;20.70;38.90;;;;;;5071258;28;20028;-76
2022/03/24 10:03:14;;;;;;;17.13;12.98;;;20.70;38.30;;;;;;5073400;28;20051;-73
2022/03/24 10:06:04;;;;;;;15.50;11.90;;;20.80;37.50;;;;;;5071203;28;20052;-73
2022/03/24 10:08:30;;;;;;;13.57;10.45;;;20.90;37.50;;;;;;5079545;28;20085;-73
2022/03/24 10:10:59;;;;;;;14.48;11.05;;;21.00;37.60;;;;;;5083085;28;20040;-73
2022/03/24 10:19:16;;;;;;;17.83;9.63;;;21.10;38.40;;;;;;5056462;27;20771;-71
2022/03/24 10:21:45;;;;;;;14.32;10.43;;;21.30;38.10;;;;;;5052500;28;20056;-75
2022/03/24 10:24:14;;;;;;;19.63;11.80;;;21.30;37.90;;;;;;5051159;28;20120;-74
2022/03/24 10:27:00;;;;;;;23.38;17.40;;;21.40;37.70;;;;;;5069081;28;20170;-74
2022/03/24 10:29:27;;;;;;;22.95;18.55;;;21.50;36.30;;;;;;5064923;28;20044;-73
2022/03/24 10:31:56;;;;;;;20.95;18.35;;;21.50;35.80;;;;;;5060017;28;20048;-72
2022/03/24 10:37:17;;;;;;;26.40;16.65;;;21.50;35.30;;;;;;5061240;28;20523;-80
2022/03/24 10:40:13;;;;;;;19.60;15.48;;;21.60;35.50;;;;;;5063634;28;20059;-78
2022/03/24 10:42:40;;;;;;;15.98;12.55;;;21.60;35.70;;;;;;5075502;28;20048;-73
2022/03/24 10:45:25;;;;;;;16.55;12.07;;;21.60;35.80;;;;;;5062264;28;20048;-77
2022/03/24 10:53:15;;;;;;;22.08;15.13;;;21.70;36.10;;;;;;5081062;27;20456;-77
2022/03/24 11:01:14;;;;;;;19.65;14.23;;;21.80;35.40;;;;;;5065168;27;20177;-74
2022/03/24 11:03:40;;;;;;;15.05;13.25;;;21.70;34.90;;;;;;5054833;28;20051;-77
2022/03/24 11:06:10;;;;;;;18.10;13.10;;;21.70;34.70;;;;;;5063158;28;20052;-78
2022/03/24 11:08:36;;;;;;;17.52;12.20;;;21.70;34.60;;;;;;5051391;28;20392;-73
2022/03/24 11:11:07;;;;;;;15.43;12.88;;;21.70;34.80;;;;;;5052224;28;20734;-72
2022/03/24 11:16:33;;;;;;;13.05;10.95;;;21.60;35.00;;;;;;5062367;27;20422;-75
2022/03/24 11:19:15;;;;;;;10.45;9.35;;;21.60;35.30;;;;;;5054028;28;20079;-74
2022/03/24 11:24:27;;;;;;;10.73;8.55;;;21.60;35.50;;;;;;5093672;27;1284767;-73
2022/03/24 11:26:53;;;;;;;13.93;8.40;;;21.60;35.70;;;;;;5113836;28;20133;-77
2022/03/24 11:29:19;;;;;;;17.55;11.55;;;21.60;36.00;;;;;;5096049;28;20050;-77
2022/03/24 11:31:48;;;;;;;14.48;10.63;;;21.60;34.80;;;;;;5112288;28;20039;-78
2022/03/24 11:34:14;;;;;;;15.10;10.07;;;21.60;34.20;;;;;;5095950;28;20118;-79
2022/03/24 11:36:41;;;;;;;15.18;11.15;;;21.50;34.10;;;;;;5096642;28;20148;-77
2022/03/24 11:39:09;;;;;;;14.45;11.20;;;21.50;33.80;;;;;;5094156;28;20043;-77
2022/03/24 11:41:42;;;;;;;11.77;9.13;;;21.40;33.50;;;;;;5105643;28;20035;-76
2022/03/24 11:44:15;;;;;;;12.00;9.68;;;21.40;33.40;;;;;;5090698;28;20043;-72
2022/03/24 11:49:27;;;;;;;10.10;8.35;;;21.30;33.40;;;;;;5088932;27;20401;-73
2022/03/24 11:54:50;;;;;;;17.85;8.43;;;21.30;33.80;;;;;;5054333;28;20451;-68
2022/03/24 11:57:34;;;;;;;14.80;7.35;;;21.30;34.00;;;;;;5035515;28;20053;-70
2022/03/24 12:02:59;;;;;;;13.80;7.03;;;21.30;34.30;;;;;;5107308;27;20920;-69
2022/03/24 12:05:47;;;;;;;15.32;7.35;;;21.30;35.30;;;;;;5107822;28;20127;-67
2022/03/24 12:08:25;;;;;;;10.32;6.97;;;21.30;36.10;;;;;;5088198;28;20043;-73
2022/03/24 12:10:51;;;;;;;11.85;6.50;;;21.30;36.00;;;;;;5093450;28;20044;-73
2022/03/24 12:16:22;;;;;;;9.80;5.72;;;21.40;36.20;;;;;;5043042;27;20482;-73
2022/03/24 12:18:48;;;;;;;10.55;5.53;;;21.40;36.50;;;;;;5052648;28;20040;-76
2022/03/24 12:21:23;;;;;;;7.97;5.32;;;21.40;36.20;;;;;;5066492;28;20527;-74
2022/03/24 12:24:14;;;;;;;9.90;4.75;;;21.40;36.50;;;;;;5050079;28;20049;-73
2022/03/24 12:29:27;;;;;;;8.27;4.70;;;21.40;36.50;;;;;;5104066;27;1214585;-71
2022/03/24 12:32:10;;;;;;;10.95;4.93;;;21.50;36.40;;;;;;5124773;27;20665;-75
2022/03/24 12:48:10;;;;;;;5.53;4.18;;;21.50;36.60;;;;;;5086150;27;20476;-73
2022/03/24 12:53:16;;;;;;;7.82;3.92;;;21.50;36.90;;;;;;5063199;28;20484;-71
2022/03/24 12:55:43;;;;;;;8.32;3.88;;;21.50;36.50;;;;;;5076910;28;21007;-71
2022/03/24 12:58:13;;;;;;;7.10;4.18;;;21.50;36.40;;;;;;5062224;28;20045;-74
2022/03/24 13:00:42;;;;;;;8.77;3.65;;;21.50;36.30;;;;;;5066829;28;20049;-72
2022/03/24 13:03:10;;;;;;;8.05;3.65;;;21.50;36.30;;;;;;5083503;28;20059;-72
2022/03/24 13:05:42;;;;;;;8.13;4.03;;;21.50;36.20;;;;;;5065765;28;20044;-76
2022/03/24 13:08:11;;;;;;;6.53;3.35;;;21.50;36.20;;;;;;5064695;28;20395;-72
2022/03/24 13:10:40;;;;;;;7.53;4.18;;;21.50;36.40;;;;;;5076722;28;20040;-71
2022/03/24 13:13:06;;;;;;;10.60;4.15;;;21.50;36.50;;;;;;5063383;28;20040;-76
2022/03/24 13:15:35;;;;;;;5.43;3.25;;;21.60;36.60;;;;;;5062678;28;20036;-76
2022/03/24 13:18:03;;;;;;;9.23;3.47;;;21.60;36.70;;;;;;5067686;28;20114;-71
2022/03/24 13:20:47;;;;;;;8.40;3.60;;;21.60;36.90;;;;;;5064821;28;20220;-72
2022/03/24 13:23:18;;;;;;;7.93;3.20;;;21.60;37.00;;;;;;5064679;28;20105;-72
2022/03/24 13:25:48;;;;;;;7.75;3.13;;;21.70;37.00;;;;;;5070824;28;20071;-74
2022/03/24 13:28:15;;;;;;;10.32;3.13;;;21.70;37.10;;;;;;5084754;28;20036;-72
2022/03/24 13:30:43;;;;;;;10.52;2.78;;;21.70;37.10;;;;;;5067735;28;20032;-71
2022/03/24 13:33:10;;;;;;;7.13;2.70;;;21.70;37.20;;;;;;5071564;28;20333;-72
2022/03/24 13:35:38;;;;;;;6.88;3.03;;;21.70;37.20;;;;;;5068198;28;20139;-70
2022/03/24 13:38:08;;;;;;;7.53;2.28;;;21.70;37.10;;;;;;5063659;28;20044;-70
2022/03/24 13:40:37;;;;;;;8.38;3.47;;;21.70;37.10;;;;;;5064290;28;20108;-72
2022/03/24 13:43:04;;;;;;;6.97;2.37;;;21.70;37.10;;;;;;5072544;28;20137;-72
2022/03/24 13:45:31;;;;;;;5.22;2.72;;;21.70;37.00;;;;;;5069836;28;20684;-75